Time;durP1;ratioP1;P1;durP2;ratioP2;P2;SDS_P1;SDS_P2;PMS_P1;PMS_P2;Temp;Humidity;BMP_temperature;BMP_pressure;BME280_temperature;BME280_humidity;BME280_pressure;Samples;Min_cycle;Max_cycle;Signal;HPM_P1;HPM_P2
2022/11/06 11:52:15;;;;;;;4.35;3.35;;;;;;;11.19;59.21;99260.03;5712347;23;20423;-92
2022/11/06 11:54:49;;;;;;;3.20;2.78;;;;;;;11.21;58.99;99250.25;4820850;29;20233;-91
2022/11/06 11:57:47;;;;;;;;;;;;;;;;;;;;;
2022/11/06 12:00:33;;;;;;;;;;;;;;;;;;;;;
2022/11/06 12:03:13;;;;;;;2.85;2.50;;;;;;;11.28;58.22;99238.31;4810185;29;20468;-93
2022/11/06 12:08:50;;;;;;;;;;;;;;;;;;;;;
2022/11/06 12:11:58;;;;;;;3.90;2.95;;;;;;;11.24;58.17;99233.44;4813481;29;20277;-91
2022/11/06 12:14:32;;;;;;;6.38;3.42;;;;;;;11.23;58.37;99240.47;4813493;29;20213;-90
2022/11/06 12:17:25;;;;;;;4.18;2.83;;;;;;;11.23;58.78;99242.25;4805596;29;20215;-90
2022/11/06 12:20:00;;;;;;;4.07;3.10;;;;;;;11.29;58.73;99233.94;4805548;29;20206;-90
2022/11/06 12:22:51;;;;;;;6.25;4.05;;;;;;;11.34;58.68;99236.22;4808939;29;20212;-91
2022/11/06 12:25:34;;;;;;;4.82;3.97;;;;;;;11.41;58.43;99226.94;4800310;29;20361;-91
2022/11/06 12:29:10;;;;;;;;;;;;;;;;;;;;;
2022/11/06 12:32:09;;;;;;;5.95;4.63;;;;;;;11.36;58.94;99239.56;4782344;29;20244;-91
2022/11/06 12:35:41;;;;;;;5.97;4.57;;;;;;;11.30;59.61;99233.81;4806964;29;20776;-90
2022/11/06 12:39:01;;;;;;;6.57;5.43;;;;;;;11.24;59.96;99239.50;4729972;30;20295;-90
2022/11/06 12:42:01;;;;;;;6.60;4.90;;;;;;;11.20;60.26;99235.41;4706109;30;20229;-90
2022/11/06 12:44:47;;;;;;;8.45;5.70;;;;;;;11.14;60.53;99225.34;4726578;30;20316;-90
2022/11/06 12:47:36;;;;;;;8.73;6.43;;;;;;;11.09;60.70;99222.22;4798533;29;20243;-91
2022/11/06 12:50:31;;;;;;;10.65;6.72;;;;;;;11.10;61.09;99220.41;4798974;29;20520;-91
2022/11/06 12:57:01;;;;;;;3.83;3.53;;;;;;;11.03;60.95;99206.88;4807003;29;20220;-92
2022/11/06 13:00:09;;;;;;;5.97;3.30;;;;;;;11.01;60.57;99206.16;4812910;29;20627;-90
2022/11/06 13:02:57;;;;;;;5.00;3.05;;;;;;;11.00;60.45;99201.84;4813453;29;20744;-91
2022/11/06 13:05:50;;;;;;;;;;;;;;;;;;;;;
2022/11/06 13:08:55;;;;;;;;;;;;;;;;;;;;;
2022/11/06 13:11:44;;;;;;;3.42;3.00;;;;;;;11.09;59.95;99182.78;4804234;29;20578;-91
2022/11/06 13:14:25;;;;;;;3.90;3.60;;;;;;;11.02;60.20;99181.56;4809822;29;20241;-91
2022/11/06 13:17:23;;;;;;;5.53;3.80;;;;;;;11.00;60.44;99170.31;4823762;29;20218;-91
2022/11/06 13:20:12;;;;;;;6.03;4.32;;;;;;;10.98;60.56;99183.56;4821411;29;20212;-90
2022/11/06 13:22:51;;;;;;;4.25;3.35;;;;;;;10.99;60.72;99176.50;4837038;29;20287;-90
2022/11/06 13:28:54;;;;;;;4.75;4.22;;;;;;;11.11;60.56;99172.16;4819628;29;20206;-92
2022/11/06 13:31:46;;;;;;;6.53;4.22;;;;;;;11.23;60.62;99174.75;4827316;29;20644;-90
2022/11/06 13:35:02;;;;;;;;;;;;;;;;;;;;;
2022/11/06 13:37:38;;;;;;;5.70;4.65;;;;;;;11.54;59.75;99155.88;4803666;29;20217;-91
2022/11/06 13:40:51;;;;;;;4.28;3.55;;;;;;;11.61;59.73;99150.03;4811740;29;20226;-91
2022/11/06 13:47:41;;;;;;;4.50;4.10;;;;;;;11.79;58.49;99170.63;4790138;29;20236;-94
2022/11/06 13:51:01;;;;;;;7.10;3.58;;;;;;;11.70;58.54;99166.91;4806533;29;20230;-92
2022/11/06 13:54:10;;;;;;;;;;;;;;;;;;;;;
2022/11/06 13:57:11;;;;;;;3.83;3.22;;;;;;;11.60;57.99;99161.50;4812340;29;20525;-91
2022/11/06 14:00:16;;;;;;;4.00;3.45;;;;;;;11.54;58.39;99158.50;4816081;29;20202;-92
2022/11/06 14:03:32;;;;;;;4.00;3.30;;;;;;;11.46;58.62;99159.06;4818020;29;20255;-92
2022/11/06 14:06:53;;;;;;;5.32;3.78;;;;;;;11.42;58.83;99160.22;4816776;29;20286;-91
2022/11/06 14:09:21;;;;;;;5.90;3.65;;;;;;;11.41;59.14;99166.44;4801633;29;20254;-91
2022/11/06 14:12:04;;;;;;;4.88;4.00;;;;;;;11.39;59.31;99157.81;4805083;29;20213;-91
2022/11/06 14:14:39;;;;;;;6.45;4.65;;;;;;;11.35;59.40;99159.84;4810196;29;20722;-91
2022/11/06 14:17:43;;;;;;;;;;;;;;;;;;;;;
2022/11/06 14:20:38;;;;;;;5.40;4.00;;;;;;;11.31;59.66;99158.38;4814193;29;20205;-90
2022/11/06 14:23:45;;;;;;;;;;;;;;;;;;;;;
2022/11/06 14:27:09;;;;;;;4.78;3.70;;;;;;;11.29;59.95;99168.19;4813722;29;20221;-91
2022/11/06 14:29:58;;;;;;;4.50;3.63;;;;;;;11.26;60.19;99177.16;4798903;29;20248;-91
2022/11/06 14:33:25;;;;;;;;;;;;;;;;;;;;;
2022/11/06 14:35:56;;;;;;;6.28;4.43;;;;;;;11.25;60.46;99172.81;4785605;29;20884;-91
2022/11/06 14:38:28;;;;;;;5.60;4.32;;;;;;;11.26;60.55;99163.16;4800320;29;20211;-92
2022/11/06 14:41:01;;;;;;;5.55;4.90;;;;;;;11.27;60.64;99147.28;4796268;29;20258;-92
2022/11/06 14:43:56;;;;;;;5.30;4.55;;;;;;;11.29;60.68;99148.00;4799595;29;20221;-91
2022/11/06 14:46:42;;;;;;;4.22;3.83;;;;;;;11.30;60.70;99159.34;4801503;29;20915;-91
2022/11/06 14:49:25;;;;;;;6.95;4.75;;;;;;;11.31;60.64;99155.75;4794480;29;20206;-92
2022/11/06 14:52:37;;;;;;;;;;;;;;;;;;;;;
2022/11/06 14:55:31;;;;;;;5.47;4.32;;;;;;;11.26;60.63;99135.09;4814097;29;20218;-92
2022/11/06 14:58:25;;;;;;;7.43;4.10;;;;;;;11.21;60.70;99137.22;4824565;29;20213;-92
2022/11/06 15:02:16;;;;;;;;;;;;;;;;;;;;;
2022/11/06 15:05:21;;;;;;;4.38;3.67;;;;;;;11.19;61.03;99127.75;4821818;29;20236;-92
2022/11/06 15:08:39;;;;;;;4.10;3.67;;;;;;;11.13;60.94;99131.69;4821900;29;20282;-92
2022/11/06 15:11:41;;;;;;;4.50;4.10;;;;;;;11.07;61.09;99124.22;4799209;29;20236;-92
2022/11/06 15:14:28;;;;;;;;;;;;;;;;;;;;;
2022/11/06 15:17:14;;;;;;;4.57;3.88;;;;;;;11.05;61.35;99131.41;4829194;29;20280;-92
2022/11/06 15:20:32;;;;;;;9.25;3.53;;;;;;;11.02;61.64;99129.84;4830451;29;20220;-92
2022/11/06 15:24:16;;;;;;;3.80;3.50;;;;;;;10.98;61.54;99122.28;4827404;29;20668;-92
2022/11/06 15:27:43;;;;;;;3.42;3.05;;;;;;;10.95;61.62;99117.25;4797456;29;20567;-92
2022/11/06 15:30:54;;;;;;;6.57;4.40;;;;;;;10.95;61.90;99112.00;4786630;29;20252;-92
2022/11/06 15:34:01;;;;;;;7.40;3.95;;;;;;;10.94;61.91;99102.47;4814450;29;20213;-91
2022/11/06 15:36:59;;;;;;;5.60;4.03;;;;;;;10.92;62.18;99115.69;4814811;29;20230;-93
2022/11/06 15:39:39;;;;;;;5.55;3.65;;;;;;;10.91;62.47;99110.53;4823258;29;20228;-91
2022/11/06 15:42:16;;;;;;;8.30;5.20;;;;;;;10.89;62.52;99115.91;4811682;29;20775;-91
2022/11/06 15:44:51;;;;;;;5.68;4.47;;;;;;;10.88;62.64;99116.03;4809486;29;20673;-91
2022/11/06 15:47:44;;;;;;;7.32;5.70;;;;;;;10.84;63.06;99116.25;4793332;29;20221;-92
2022/11/06 15:50:21;;;;;;;7.68;5.38;;;;;;;10.79;63.25;99110.47;4808473;29;20700;-92
2022/11/06 15:52:57;;;;;;;9.93;6.18;;;;;;;10.75;63.56;99113.47;4815495;29;21217;-92
2022/11/06 15:55:40;;;;;;;6.38;4.95;;;;;;;10.72;63.80;99108.41;4814532;29;20311;-91
2022/11/06 15:58:28;;;;;;;6.88;5.00;;;;;;;10.70;63.81;99119.03;4811656;29;20213;-92
2022/11/06 16:01:05;;;;;;;17.20;10.48;;;;;;;10.69;64.06;99130.47;4817753;29;20205;-92
2022/11/06 16:03:47;;;;;;;10.80;8.27;;;;;;;10.68;64.34;99118.31;4819340;29;20713;-91
2022/11/06 16:06:16;;;;;;;10.70;7.97;;;;;;;10.65;64.48;99108.03;4811183;29;20996;-92
2022/11/06 16:08:48;;;;;;;8.73;5.75;;;;;;;10.63;64.60;99113.38;4808406;29;20683;-91
2022/11/06 16:11:17;;;;;;;9.73;5.97;;;;;;;10.62;64.73;99129.25;4838833;29;20740;-92
2022/11/06 16:13:54;;;;;;;6.65;5.55;;;;;;;10.62;64.86;99129.25;4849948;29;20209;-91
2022/11/06 16:16:37;;;;;;;9.07;7.43;;;;;;;10.57;65.11;99126.13;4851285;29;20219;-89
2022/11/06 16:19:14;;;;;;;8.18;5.38;;;;;;;10.54;65.34;99116.66;4825006;29;20204;-91
2022/11/06 16:22:00;;;;;;;12.85;9.05;;;;;;;10.50;65.45;99124.88;4821922;29;20204;-91
2022/11/06 16:24:49;;;;;;;13.10;8.82;;;;;;;10.48;65.42;99122.38;4826216;29;20228;-91
2022/11/06 16:27:15;;;;;;;13.45;8.93;;;;;;;10.49;65.51;99134.53;4846772;29;20208;-91
2022/11/06 16:30:03;;;;;;;9.25;7.80;;;;;;;10.50;65.69;99148.50;4826399;29;20232;-91
2022/11/06 16:32:48;;;;;;;;;;;;;;;;;;;;;
2022/11/06 16:35:38;;;;;;;16.77;10.30;;;;;;;10.49;65.75;99145.03;4824487;29;20235;-90
2022/11/06 16:38:15;;;;;;;13.68;12.18;;;;;;;10.45;66.00;99154.09;4835650;29;20208;-91
2022/11/06 16:40:52;;;;;;;14.02;11.43;;;;;;;10.43;65.87;99158.59;4832222;29;20223;-90
2022/11/06 16:43:19;;;;;;;12.57;10.77;;;;;;;10.42;66.12;99146.41;4830297;29;20224;-91
2022/11/06 16:45:57;;;;;;;10.32;6.95;;;;;;;10.39;66.16;99139.59;4829571;29;20208;-90
2022/11/06 16:48:30;;;;;;;18.15;14.07;;;;;;;10.36;66.35;99144.22;4835562;29;20710;-90
2022/11/06 16:50:59;;;;;;;13.95;11.07;;;;;;;10.32;66.62;99140.16;4833472;29;20674;-90
2022/11/06 16:53:32;;;;;;;10.40;9.27;;;;;;;10.30;66.85;99158.63;4830963;29;20324;-90
2022/11/06 16:56:04;;;;;;;10.70;9.57;;;;;;;10.28;66.66;99152.63;4831131;29;20760;-89
2022/11/06 16:58:33;;;;;;;9.98;9.00;;;;;;;10.28;66.77;99157.03;4828275;29;20219;-89
2022/11/06 17:01:03;;;;;;;14.30;12.80;;;;;;;10.27;66.74;99161.47;4831274;29;20201;-89
2022/11/06 17:03:38;;;;;;;13.30;12.00;;;;;;;10.27;66.99;99158.84;4827871;29;20235;-89
2022/11/06 17:06:04;;;;;;;14.75;11.80;;;;;;;10.29;66.96;99184.97;4829135;29;20293;-89
2022/11/06 17:08:35;;;;;;;11.45;9.35;;;;;;;10.28;66.94;99184.13;4832060;29;20209;-89
2022/11/06 17:11:25;;;;;;;13.23;9.20;;;;;;;10.26;67.46;99195.66;4826150;29;20241;-91
2022/11/06 17:13:50;;;;;;;13.80;8.57;;;;;;;10.22;67.53;99213.41;4828115;29;20204;-90
2022/11/06 17:16:27;;;;;;;8.52;7.43;;;;;;;10.18;67.61;99232.94;4823984;29;20221;-89
2022/11/06 17:18:53;;;;;;;9.52;6.95;;;;;;;10.15;67.82;99220.00;4830245;29;20216;-88
2022/11/06 17:21:20;;;;;;;14.50;9.00;;;;;;;10.15;68.17;99225.25;4825916;29;20213;-89
2022/11/06 17:23:52;;;;;;;17.42;12.43;;;;;;;10.15;67.77;99235.75;4826655;29;20468;-89
2022/11/06 17:26:20;;;;;;;31.45;22.38;;;;;;;10.17;67.88;99239.13;4817482;29;20219;-90
2022/11/06 17:28:46;;;;;;;34.35;24.75;;;;;;;10.17;67.87;99231.25;4831644;29;20208;-89
2022/11/06 17:31:14;;;;;;;38.33;25.60;;;;;;;10.18;67.92;99246.06;4827384;29;20213;-89
2022/11/06 17:33:40;;;;;;;34.37;24.10;;;;;;;10.22;68.09;99257.19;4827879;29;20638;-89
2022/11/06 17:36:14;;;;;;;23.60;17.45;;;;;;;10.23;68.16;99241.31;4812407;29;20579;-91
2022/11/06 17:39:42;;;;;;;19.35;14.32;;;;;;;10.23;68.17;99222.94;4828580;29;20209;-91
2022/11/06 17:42:10;;;;;;;13.85;11.70;;;;;;;10.18;68.51;99227.69;4818397;29;20220;-90
2022/11/06 17:44:35;;;;;;;14.13;11.85;;;;;;;10.18;68.28;99246.06;4823036;29;20215;-89
2022/11/06 17:47:01;;;;;;;15.70;11.77;;;;;;;10.20;68.39;99255.50;4806553;29;20220;-89
2022/11/06 17:51:58;;;;;;;;;;;;;;;;;;;;;
2022/11/06 17:53:59;;;;;;;;;;;;;;;;;;;;;
2022/11/06 19:42:49;;;;;;;3.03;2.22;;;;;;;12.39;56.54;99332.81;4839025;24;20248;-95
2022/11/06 20:06:40;;;;;;;1.75;1.30;;;;;;;12.65;55.36;99330.84;4702317;30;20261;-93
2022/11/06 20:13:22;;;;;;;2.33;1.80;;;;;;;12.77;54.81;99337.84;4584845;31;20253;-92
2022/11/06 20:17:05;;;;;;;;;;;;;;;;;;;;;
2022/11/06 20:23:33;;;;;;;2.53;1.55;;;;;;;12.89;54.49;99343.13;4556811;31;20284;-92
2022/11/06 20:26:57;;;;;;;;;;;;;;;;;;;;;
2022/11/06 20:33:50;;;;;;;;;;;;;;;;;;;;;
2022/11/06 20:38:08;;;;;;;1.60;1.45;;;;;;;12.90;55.56;99339.50;4731142;29;20540;-93
2022/11/06 20:41:22;;;;;;;1.50;1.40;;;;;;;12.92;55.76;99341.06;4722020;30;20361;-94
2022/11/06 20:56:32;;;;;;;4.03;2.35;;;;;;;12.86;55.80;99370.53;5115621;24;20254;-93
2022/11/06 20:59:18;;;;;;;3.13;2.28;;;;;;;12.89;55.79;99372.09;4834912;29;20208;-92
2022/11/06 21:02:09;;;;;;;5.32;3.33;;;;;;;12.90;55.62;99376.41;4832910;29;20204;-93
2022/11/06 21:05:30;;;;;;;;;;;;;;;;;;;;;
2022/11/06 21:09:24;;;;;;;4.18;2.92;;;;;;;12.91;55.44;99389.50;4801988;24;20252;-92
2022/11/06 21:12:23;;;;;;;;;;;;;;;;;;;;;
2022/11/06 21:15:17;;;;;;;;;;;;;;;;;;;;;
